createdAt,value
2023-01-03T00:02:33.900Z,2.30
2023-01-03T00:05:22.415Z,2.10
2023-01-03T00:08:11.117Z,2.33
2023-01-03T00:10:59.682Z,3.33
2023-01-03T00:13:47.249Z,2.20
2023-01-03T00:16:37.202Z,2.33
2023-01-03T00:19:27.025Z,1.83
2023-01-03T00:22:16.775Z,2.20
2023-01-03T00:25:05.525Z,2.67
2023-01-03T00:27:57.089Z,2.10
2023-01-03T00:30:45.671Z,1.90
2023-01-03T00:33:35.757Z,2.27
2023-01-03T00:36:24.440Z,2.00
2023-01-03T00:39:13.346Z,1.90
2023-01-03T00:42:01.897Z,2.17
2023-01-03T00:44:50.499Z,2.17
2023-01-03T00:47:39.119Z,2.80
2023-01-03T00:50:29.132Z,1.70
2023-01-03T00:53:17.658Z,1.97
2023-01-03T00:56:06.811Z,1.80
2023-01-03T00:58:55.561Z,2.13
2023-01-03T01:01:47.454Z,2.30
2023-01-03T01:04:36.485Z,2.13
2023-01-03T01:07:26.441Z,1.80
2023-01-03T01:10:19.357Z,1.60
2023-01-03T01:13:07.910Z,2.20
2023-01-03T01:15:56.621Z,1.97
2023-01-03T01:18:46.591Z,1.60
2023-01-03T01:21:35.157Z,2.30
2023-01-03T01:24:25.048Z,2.30
2023-01-03T01:27:14.010Z,2.37
2023-01-03T01:30:02.650Z,1.90
2023-01-03T01:32:51.275Z,2.10
2023-01-03T01:35:39.812Z,1.63
2023-01-03T01:38:28.432Z,1.90
2023-01-03T01:41:40.411Z,2.10
2023-01-03T01:44:46.130Z,1.80
2023-01-03T01:47:36.278Z,1.77
2023-01-03T01:50:27.556Z,2.00
2023-01-03T01:53:17.798Z,2.00
2023-01-03T01:56:08.031Z,2.10
2023-01-03T01:58:58.229Z,2.10
2023-01-03T02:01:47.696Z,2.47
2023-01-03T02:04:37.646Z,2.40
2023-01-03T02:07:26.338Z,2.13
2023-01-03T02:10:15.054Z,2.70
2023-01-03T02:13:10.453Z,2.33
2023-01-03T02:16:05.664Z,2.47
2023-01-03T02:19:06.713Z,2.77
2023-01-03T02:22:07.150Z,2.43
2023-01-03T02:25:16.708Z,2.80
2023-01-03T02:28:19.013Z,3.07
2023-01-03T02:31:11.844Z,3.07
2023-01-03T02:34:03.288Z,3.17
2023-01-03T02:36:58.099Z,3.70
2023-01-03T02:39:49.385Z,3.50
2023-01-03T02:43:02.211Z,3.20
2023-01-03T02:46:03.342Z,2.83
2023-01-03T02:48:55.632Z,3.00
2023-01-03T02:51:46.016Z,2.70
2023-01-03T02:54:37.784Z,3.00
2023-01-03T02:57:30.297Z,3.60
2023-01-03T03:00:21.496Z,2.80
2023-01-03T03:03:13.605Z,3.80
2023-01-03T03:06:10.982Z,2.90
2023-01-03T03:09:00.115Z,3.07
2023-01-03T03:12:06.732Z,2.70
2023-01-03T03:14:56.019Z,2.77
2023-01-03T03:17:46.036Z,3.00
2023-01-03T03:20:52.236Z,3.47
2023-01-03T03:24:01.321Z,2.80
2023-01-03T03:26:51.654Z,3.30
2023-01-03T03:29:39.298Z,3.47
2023-01-03T03:32:30.189Z,2.97
2023-01-03T03:35:21.841Z,3.40
2023-01-03T03:38:11.662Z,3.50
2023-01-03T03:41:26.107Z,3.73
2023-01-03T03:44:38.311Z,3.30
2023-01-03T03:47:28.598Z,2.83
2023-01-03T03:50:21.698Z,3.40
2023-01-03T03:53:11.617Z,3.60
2023-01-03T03:56:04.901Z,4.20
2023-01-03T03:58:55.874Z,3.50
2023-01-03T04:01:44.879Z,3.30
2023-01-03T04:04:36.162Z,4.10
2023-01-03T04:07:24.727Z,3.80
2023-01-03T04:10:14.415Z,3.50
2023-01-03T04:13:04.371Z,3.10
2023-01-03T04:15:53.003Z,3.30
2023-01-03T04:18:41.654Z,4.00
2023-01-03T04:21:30.247Z,3.80
2023-01-03T04:24:20.232Z,3.77
2023-01-03T04:27:08.762Z,4.13
2023-01-03T04:29:58.731Z,4.20
2023-01-03T04:32:47.306Z,3.90
2023-01-03T04:35:36.657Z,3.97
2023-01-03T04:38:25.264Z,4.60
2023-01-03T04:41:13.842Z,4.70
2023-01-03T04:44:04.791Z,4.70
2023-01-03T04:46:54.877Z,4.40
2023-01-03T04:49:46.199Z,4.80
2023-01-03T04:52:34.755Z,4.70
2023-01-03T04:55:23.461Z,4.47
2023-01-03T04:58:12.007Z,4.27
2023-01-03T05:01:03.717Z,5.23
2023-01-03T05:03:53.705Z,5.13
2023-01-03T05:06:42.334Z,4.40
2023-01-03T05:09:31.040Z,4.63
2023-01-03T05:12:21.545Z,4.27
2023-01-03T05:15:10.744Z,4.90
2023-01-03T05:17:59.791Z,4.60
2023-01-03T05:21:07.605Z,4.67
2023-01-03T05:24:13.711Z,4.97
2023-01-03T05:27:03.456Z,5.00
2023-01-03T05:29:53.461Z,4.60
2023-01-03T05:32:42.040Z,5.30
2023-01-03T05:35:30.611Z,5.13
2023-01-03T05:38:20.549Z,5.50
2023-01-03T05:41:09.115Z,5.73
2023-01-03T05:43:57.670Z,5.00
2023-01-03T05:46:46.295Z,5.80
2023-01-03T05:49:35.656Z,5.70
2023-01-03T05:52:24.316Z,5.30
2023-01-03T05:55:14.216Z,5.80
2023-01-03T05:58:02.742Z,5.70
2023-01-03T06:00:51.285Z,5.00
2023-01-03T06:03:45.200Z,5.03
2023-01-03T06:06:33.784Z,5.13
2023-01-03T06:09:22.307Z,5.30
2023-01-03T06:12:12.164Z,5.63
2023-01-03T06:15:00.896Z,5.40
2023-01-03T06:17:54.805Z,5.13
2023-01-03T06:20:43.352Z,6.17
2023-01-03T06:23:31.891Z,5.63
2023-01-03T06:26:21.726Z,6.10
2023-01-03T06:29:11.690Z,6.10
2023-01-03T06:32:05.152Z,6.00
2023-01-03T06:34:59.314Z,5.40
2023-01-03T06:37:47.885Z,6.80
2023-01-03T06:40:40.848Z,5.67
2023-01-03T06:43:34.135Z,6.00
2023-01-03T06:46:41.890Z,6.27
2023-01-03T06:50:02.616Z,5.67
2023-01-03T06:53:09.031Z,5.87
2023-01-03T06:55:57.670Z,5.70
2023-01-03T06:58:46.386Z,6.03
2023-01-03T07:01:36.502Z,6.07
2023-01-03T07:04:25.886Z,5.60
2023-01-03T07:07:14.524Z,5.40
2023-01-03T07:10:03.084Z,6.03
2023-01-03T07:13:09.496Z,6.17
2023-01-03T07:15:58.248Z,5.40
2023-01-03T07:18:55.101Z,5.80
2023-01-03T07:21:44.268Z,5.63
2023-01-03T07:24:32.881Z,5.07
2023-01-03T07:27:21.465Z,5.40
2023-01-03T07:30:10.649Z,4.90
2023-01-03T07:32:59.252Z,5.30
2023-01-03T07:35:49.218Z,5.20
2023-01-03T07:38:37.844Z,4.70
2023-01-03T07:41:46.777Z,4.77
2023-01-03T07:44:34.368Z,5.37
2023-01-03T07:47:23.050Z,4.57
2023-01-03T07:50:11.637Z,5.10
2023-01-03T07:53:01.634Z,4.80
2023-01-03T07:55:50.202Z,5.17
2023-01-03T07:58:39.204Z,5.90
2023-01-03T08:01:29.653Z,4.93
2023-01-03T08:04:18.368Z,5.57
2023-01-03T08:07:06.958Z,4.33
2023-01-03T08:10:14.411Z,5.60
2023-01-03T08:13:22.533Z,6.07
2023-01-03T08:16:12.251Z,6.17
2023-01-03T08:19:00.943Z,6.13
2023-01-03T08:21:49.584Z,6.00
2023-01-03T08:24:38.170Z,6.30
2023-01-03T08:27:28.182Z,6.80
2023-01-03T08:30:16.766Z,7.20
2023-01-03T08:33:05.442Z,6.50
2023-01-03T08:35:56.624Z,7.50
2023-01-03T08:38:46.737Z,7.30
2023-01-03T08:41:38.151Z,6.80
2023-01-03T08:44:28.454Z,7.60
2023-01-03T08:47:17.591Z,7.10
2023-01-03T08:50:06.891Z,7.27
2023-01-03T08:52:55.486Z,7.90
2023-01-03T08:55:44.224Z,8.10
2023-01-03T08:58:32.765Z,7.70
2023-01-03T09:01:22.837Z,7.97
2023-01-03T09:04:11.564Z,7.70
2023-01-03T09:07:00.197Z,8.43
2023-01-03T09:09:48.764Z,8.00
2023-01-03T09:12:37.413Z,7.90
2023-01-03T09:15:26.070Z,7.73
2023-01-03T09:18:16.057Z,7.60
2023-01-03T09:21:06.246Z,8.20
2023-01-03T09:23:54.829Z,8.40
2023-01-03T09:26:52.372Z,7.60
2023-01-03T09:29:42.889Z,7.50
2023-01-03T09:32:31.466Z,8.13
2023-01-03T09:35:21.438Z,7.47
2023-01-03T09:38:10.338Z,8.23
2023-01-03T09:41:00.483Z,7.30
2023-01-03T09:43:50.859Z,6.97
2023-01-03T09:46:39.729Z,7.83
2023-01-03T09:49:28.463Z,7.37
2023-01-03T09:52:40.108Z,7.40
2023-01-03T09:55:50.216Z,8.03
2023-01-03T09:58:56.601Z,8.00
2023-01-03T10:02:11.022Z,9.60
2023-01-03T10:05:12.072Z,7.50
2023-01-03T10:08:14.437Z,7.63
2023-01-03T10:11:05.501Z,6.73
2023-01-03T10:14:02.789Z,7.40
2023-01-03T10:17:00.780Z,7.93
2023-01-03T10:19:59.349Z,7.57
2023-01-03T10:22:48.921Z,6.93
2023-01-03T10:25:40.769Z,6.77
2023-01-03T10:28:33.350Z,6.47
2023-01-03T10:31:32.958Z,7.17
2023-01-03T10:34:21.587Z,7.10
2023-01-03T10:37:17.494Z,7.50
2023-01-03T10:40:06.555Z,6.00
2023-01-03T10:42:56.727Z,7.00
2023-01-03T10:45:53.103Z,6.80
2023-01-03T10:49:25.525Z,6.57
2023-01-03T10:51:56.322Z,7.07
2023-01-03T10:54:51.069Z,7.27
2023-01-03T10:57:46.050Z,8.03
2023-01-03T11:00:38.894Z,7.43
2023-01-03T11:03:29.138Z,7.20
2023-01-03T11:06:17.761Z,6.43
2023-01-03T11:09:07.447Z,7.87
2023-01-03T11:11:56.706Z,7.70
2023-01-03T11:14:51.007Z,7.00
2023-01-03T11:17:53.709Z,6.77
2023-01-03T11:20:43.962Z,6.43
2023-01-03T11:23:37.845Z,6.73
2023-01-03T11:26:33.466Z,5.80
2023-01-03T11:29:39.674Z,5.67
2023-01-03T11:32:32.966Z,5.20
2023-01-03T11:35:35.967Z,5.47
2023-01-03T11:38:34.681Z,4.97
2023-01-03T11:41:29.680Z,4.50
2023-01-03T11:44:29.392Z,5.07
2023-01-03T11:47:24.671Z,4.53
2023-01-03T11:50:19.697Z,4.10
2023-01-03T11:53:15.185Z,4.70
2023-01-03T11:56:09.663Z,4.23
2023-01-03T11:59:06.840Z,3.93
2023-01-03T12:02:10.405Z,3.30
2023-01-03T12:05:07.244Z,3.73
2023-01-03T12:07:59.969Z,3.97
2023-01-03T12:10:55.486Z,4.37
2023-01-03T12:13:50.980Z,3.90
2023-01-03T12:16:41.618Z,3.70
2023-01-03T12:19:33.472Z,3.53
2023-01-03T12:22:24.438Z,4.10
2023-01-03T12:25:20.706Z,4.83
2023-01-03T12:28:14.918Z,4.93
2023-01-03T12:31:05.145Z,4.30
2023-01-03T12:33:57.660Z,4.80
2023-01-03T12:36:50.429Z,4.33
2023-01-03T12:39:45.048Z,4.60
2023-01-03T12:42:37.384Z,3.50
2023-01-03T12:45:38.935Z,4.87
2023-01-03T12:48:48.284Z,4.50
2023-01-03T12:51:37.436Z,3.90
2023-01-03T12:54:36.189Z,4.03
2023-01-03T12:57:46.332Z,4.53
2023-01-03T13:00:48.565Z,4.13
2023-01-03T13:03:40.403Z,4.00
2023-01-03T13:06:31.122Z,4.50
2023-01-03T13:09:23.778Z,4.40
2023-01-03T13:12:15.575Z,3.87
2023-01-03T13:15:08.218Z,3.47
2023-01-03T13:18:17.673Z,3.53
2023-01-03T13:21:21.113Z,3.60
2023-01-03T13:24:09.778Z,3.97
2023-01-03T13:27:16.176Z,3.63
2023-01-03T13:30:19.205Z,3.70
2023-01-03T13:33:17.963Z,3.73
2023-01-03T13:36:06.875Z,3.50
2023-01-03T13:38:56.580Z,4.33
2023-01-03T13:41:45.243Z,4.30
2023-01-03T13:44:33.936Z,4.00
2023-01-03T13:47:27.142Z,4.83
2023-01-03T13:50:23.860Z,4.77
2023-01-03T13:53:28.576Z,5.47
2023-01-03T13:56:24.477Z,5.23
2023-01-03T13:59:20.029Z,5.50
2023-01-03T14:02:28.159Z,5.90
2023-01-03T14:05:34.643Z,5.73
2023-01-03T14:08:31.936Z,5.53
2023-01-03T14:11:31.909Z,5.10
2023-01-03T14:14:23.181Z,5.57
2023-01-03T14:17:17.562Z,5.50
2023-01-03T14:20:09.439Z,5.63
2023-01-03T14:23:17.117Z,6.47
2023-01-03T14:26:15.012Z,5.60
2023-01-03T14:29:03.738Z,6.33
2023-01-03T14:31:55.792Z,5.30
2023-01-03T14:34:44.536Z,6.60
2023-01-03T14:37:34.935Z,7.10
2023-01-03T14:40:25.022Z,5.80
2023-01-03T14:43:19.398Z,6.60
2023-01-03T14:46:12.797Z,6.47
2023-01-03T14:49:03.673Z,6.60
2023-01-03T14:51:52.813Z,6.40
2023-01-03T14:54:44.911Z,7.10
2023-01-03T14:57:38.921Z,7.10
2023-01-03T15:00:32.874Z,6.73
2023-01-03T15:03:21.871Z,6.87
2023-01-03T15:06:24.405Z,6.40
2023-01-03T15:09:22.310Z,6.30
2023-01-03T15:12:11.118Z,6.43
2023-01-03T15:15:07.950Z,6.27
2023-01-03T15:17:57.743Z,6.93
2023-01-03T15:20:46.838Z,6.93
2023-01-03T15:23:39.681Z,6.30
2023-01-03T15:26:29.383Z,6.00
2023-01-03T15:29:19.192Z,6.50
2023-01-03T15:32:12.366Z,5.60
2023-01-03T15:35:01.173Z,6.33
2023-01-03T15:37:53.336Z,6.33
2023-01-03T15:40:41.932Z,5.90
2023-01-03T15:43:32.693Z,6.20
2023-01-03T15:46:22.059Z,6.87
2023-01-03T15:49:13.615Z,6.50
2023-01-03T15:52:02.270Z,7.37
2023-01-03T15:54:50.977Z,7.50
2023-01-03T15:57:39.581Z,7.37
2023-01-03T16:00:28.143Z,8.03
2023-01-03T16:03:17.547Z,8.90
2023-01-03T16:06:07.873Z,8.70
2023-01-03T16:08:56.900Z,10.37
2023-01-03T16:11:48.856Z,10.13
2023-01-03T16:14:40.099Z,11.07
2023-01-03T16:17:29.717Z,9.87
2023-01-03T16:20:19.100Z,11.37
2023-01-03T16:23:17.042Z,11.00
2023-01-03T16:26:05.706Z,10.90
2023-01-03T16:28:54.321Z,10.80
2023-01-03T16:31:43.508Z,10.63
2023-01-03T16:34:33.928Z,11.20
2023-01-03T16:37:22.662Z,12.00
2023-01-03T16:40:17.456Z,11.77
2023-01-03T16:43:06.020Z,10.80
2023-01-03T16:45:55.590Z,11.30
2023-01-03T16:48:47.826Z,11.80
2023-01-03T16:51:39.528Z,11.33
2023-01-03T16:54:31.965Z,12.10
2023-01-03T16:57:22.588Z,11.63
2023-01-03T17:00:19.005Z,11.63
2023-01-03T17:03:07.671Z,12.57
2023-01-03T17:05:56.550Z,12.83
2023-01-03T17:08:45.188Z,12.30
2023-01-03T17:11:35.363Z,12.20
2023-01-03T17:14:26.157Z,12.57
2023-01-03T17:17:18.401Z,13.80
2023-01-03T17:20:15.219Z,14.07
2023-01-03T17:23:03.856Z,13.90
2023-01-03T17:25:52.501Z,13.90
2023-01-03T17:28:41.335Z,14.30
2023-01-03T17:31:31.345Z,13.90
2023-01-03T17:34:23.880Z,13.50
2023-01-03T17:37:17.233Z,12.37
2023-01-03T17:40:06.155Z,13.53
2023-01-03T17:42:55.926Z,13.53
2023-01-03T17:46:02.456Z,14.30
2023-01-03T17:49:09.957Z,12.90
2023-01-03T17:52:01.943Z,12.97
2023-01-03T17:54:50.571Z,14.63
2023-01-03T17:57:39.107Z,14.73
2023-01-03T18:00:28.956Z,15.43
2023-01-03T18:03:17.663Z,14.50
2023-01-03T18:06:09.273Z,13.50
2023-01-03T18:08:57.954Z,14.03
2023-01-03T18:11:46.722Z,15.30
2023-01-03T18:14:35.418Z,15.27
2023-01-03T18:17:28.508Z,15.37
2023-01-03T18:20:17.843Z,14.93
2023-01-03T18:23:11.545Z,13.80
2023-01-03T18:26:01.666Z,15.93
2023-01-03T18:28:50.510Z,15.17
2023-01-03T18:31:39.143Z,15.20
2023-01-03T18:34:27.842Z,16.13
2023-01-03T18:37:16.464Z,15.00
2023-01-03T18:40:08.240Z,14.87
2023-01-03T18:43:09.758Z,14.83
2023-01-03T18:45:58.353Z,15.30
2023-01-03T18:48:47.079Z,15.13
2023-01-03T18:51:35.748Z,15.10
2023-01-03T18:54:24.378Z,15.43
2023-01-03T18:57:14.318Z,15.97
2023-01-03T19:00:02.942Z,16.20
2023-01-03T19:02:52.150Z,15.30
2023-01-03T19:05:40.892Z,16.57
2023-01-03T19:08:31.336Z,16.10
2023-01-03T19:11:21.232Z,15.97
2023-01-03T19:14:13.014Z,16.40
2023-01-03T19:17:11.028Z,15.77
2023-01-03T19:19:59.706Z,14.90
2023-01-03T19:22:48.799Z,15.90
2023-01-03T19:25:37.407Z,15.90
2023-01-03T19:28:28.763Z,16.63
2023-01-03T19:31:18.788Z,16.30
2023-01-03T19:34:12.126Z,16.13
2023-01-03T19:37:00.852Z,15.70
2023-01-03T19:39:49.579Z,15.37
2023-01-03T19:42:50.617Z,15.10
2023-01-03T19:45:40.602Z,15.90
2023-01-03T19:48:30.548Z,15.50
2023-01-03T19:51:19.097Z,15.50
2023-01-03T19:54:07.743Z,15.70
2023-01-03T19:56:57.898Z,15.53
2023-01-03T19:59:48.137Z,15.97
2023-01-03T20:02:41.983Z,16.07
2023-01-03T20:05:36.048Z,15.40
2023-01-03T20:08:27.577Z,15.27
2023-01-03T20:11:23.435Z,15.57
2023-01-03T20:14:20.742Z,14.97
2023-01-03T20:17:15.747Z,15.50
2023-01-03T20:20:12.986Z,14.80
2023-01-03T20:23:07.523Z,14.73
2023-01-03T20:25:58.473Z,14.60
2023-01-03T20:28:47.073Z,14.10
2023-01-03T20:31:36.066Z,14.27
2023-01-03T20:34:29.205Z,14.13
2023-01-03T20:37:22.436Z,13.67
2023-01-03T20:40:20.537Z,13.47
2023-01-03T20:43:13.900Z,12.63
2023-01-03T20:46:16.129Z,12.70
2023-01-03T20:49:10.465Z,13.97
2023-01-03T20:52:05.446Z,13.43
2023-01-03T20:54:55.019Z,12.50
2023-01-03T20:57:48.099Z,13.33
2023-01-03T21:00:39.971Z,14.40
2023-01-03T21:03:28.711Z,13.00
2023-01-03T21:06:18.848Z,13.20
2023-01-03T21:09:11.505Z,14.20
2023-01-03T21:12:06.711Z,13.20
2023-01-03T21:14:58.666Z,12.67
2023-01-03T21:17:51.207Z,13.10
2023-01-03T21:20:40.089Z,12.00
2023-01-03T21:23:28.682Z,11.80
2023-01-03T21:26:17.259Z,12.37
2023-01-03T21:29:06.092Z,11.53
2023-01-03T21:31:56.044Z,11.90
2023-01-03T21:34:47.961Z,10.93
2023-01-03T21:37:38.808Z,12.40
2023-01-03T21:40:34.023Z,11.50
2023-01-03T21:43:28.560Z,10.90
2023-01-03T21:46:18.750Z,10.13
2023-01-03T21:49:08.751Z,11.10
2023-01-03T21:51:57.349Z,9.93
2023-01-03T21:54:45.914Z,10.40
2023-01-03T21:57:37.191Z,9.47
2023-01-03T22:00:25.747Z,9.30
2023-01-03T22:03:32.155Z,9.77
2023-01-03T22:06:27.752Z,8.90
2023-01-03T22:09:30.223Z,8.90
2023-01-03T22:12:19.063Z,8.37
2023-01-03T22:15:13.357Z,8.90
2023-01-03T22:18:03.725Z,8.57
2023-01-03T22:20:53.826Z,8.23
2023-01-03T22:23:45.040Z,8.60
2023-01-03T22:26:34.519Z,8.43
2023-01-03T22:29:23.324Z,8.37
2023-01-03T22:32:11.988Z,7.83
2023-01-03T22:35:00.616Z,8.27
2023-01-03T22:37:51.130Z,7.67
2023-01-03T22:40:43.336Z,7.23
2023-01-03T22:43:36.951Z,7.80
2023-01-03T22:46:27.543Z,8.17
2023-01-03T22:49:17.387Z,6.70
2023-01-03T22:52:12.007Z,6.63
2023-01-03T22:55:02.470Z,6.67
2023-01-03T22:57:54.742Z,7.03
2023-01-03T23:00:45.812Z,6.80
2023-01-03T23:03:34.516Z,6.47
2023-01-03T23:06:27.486Z,6.60
2023-01-03T23:09:21.093Z,6.40
2023-01-03T23:12:27.251Z,6.77
2023-01-03T23:15:18.254Z,5.60
2023-01-03T23:18:08.600Z,5.90
2023-01-03T23:21:05.134Z,5.40
2023-01-03T23:23:56.712Z,5.97
2023-01-03T23:26:47.111Z,5.77
2023-01-03T23:29:40.394Z,5.77
2023-01-03T23:32:30.320Z,5.40
2023-01-03T23:35:20.925Z,4.73
2023-01-03T23:38:09.472Z,4.83
2023-01-03T23:40:58.000Z,4.73
2023-01-03T23:43:48.081Z,4.70
2023-01-03T23:46:41.204Z,4.57
2023-01-03T23:49:37.421Z,5.23
2023-01-03T23:52:29.328Z,3.90
2023-01-03T23:55:20.397Z,4.00
2023-01-03T23:58:08.944Z,3.30
